Aérodrome :
LOGIN :

S'inscrire | Disclaimer

   EN    FR    IT 

 










Légende :    VFR   VFR Marginal   IFR   IFR Intensif   IFR Très Intensif
Visi : 
Plafond : 
>= 8 km
>= 3000ft
5 à 8 km
1000 à 3000 ft
1500m à 5 km
500 à 1000 ft
800 à 1500m
200 à 500 ft
< 800m
< 200 ft
Symboles :   Orages  Brouillard  Fortes neiges  Fortes précipitations  Vent > 20 kt
SIGMETs :   Divers  Orages  Givrage  Turbulence  Onde Orograph.  Cendres Volcan.







- Altitude de l'aérodrome : 510 ft


LJCE - Cerklje

DERNIER METAR :
  • 271230Z VRB02KT CAVOK 34/19 Q1017

METARs EXPIRÉS :
  • 271200Z 13002KT CAVOK 34/20 Q1017
  • 271130Z 17003KT 120V240 CAVOK 34/21 Q1018
  • 271100Z 23003KT 190V340 9999 FEW047 33/21 Q1018
  • 271030Z 22004KT 180V280 9999 FEW040 32/21 Q1018
  • 271000Z 25003KT 200V320 CAVOK 31/21 Q1019
  • 270930Z 27004KT 200V320 CAVOK 31/22 Q1019

TAF TAF LJCE
Valide du 27 à 12h jusqu'au 27 à 21h UTC


271100Z 2712/2721 24005KT CAVOK
TEMPO 2714/2721 36015G30KT 6000 TSRA BKN050CB OVC090
Pas de NOTAMs connus pour ce terrain.



MET'MAP, la Météo Aéronautique d'un coup d'oeil ! - Copyright ORBIFLY Décembre 2007 - Disclaimer

ORBIFLY MET'MAP TEAM :

Programmation & Développement : Alexandra Zaïnal
Conception & Développement : Baudouin d'Aumeries
Co-Programmation & Développement : Marc-Olivier Méhu
Soutien technique & logistique : Manuel Goepfert

Contact : metmap@orbifly.com




SOURCES & CREDITS :

   NOAA